Aviation Digital Data Service (ADDS)

Output produced by TAFs form (0622 UTC 26 January 2015)
found at http://aviationweather.gov/adds/tafs/
 
KGUP 260527Z 2606/2706 00000KT P6SM SKC 
     FM261900 06005KT P6SM FEW250 
     FM270100 VRB03KT P6SM SCT200